sensor_id;sensor_type;location;lat;lon;timestamp;temperature;humidity
24730;DHT22;12832;52.392;13.066;2022-11-15T00:01:11;25.30;38.10
24730;DHT22;12832;52.392;13.066;2022-11-15T00:03:50;25.20;38.10
24730;DHT22;12832;52.392;13.066;2022-11-15T00:06:19;25.20;38.00
24730;DHT22;12832;52.392;13.066;2022-11-15T00:08:47;25.30;38.10
24730;DHT22;12832;52.392;13.066;2022-11-15T00:11:16;25.20;38.00
24730;DHT22;12832;52.392;13.066;2022-11-15T00:13:46;25.30;38.10
24730;DHT22;12832;52.392;13.066;2022-11-15T00:16:17;25.20;38.00
24730;DHT22;12832;52.392;13.066;2022-11-15T00:18:49;25.20;38.10
24730;DHT22;12832;52.392;13.066;2022-11-15T00:21:18;25.20;38.10
24730;DHT22;12832;52.392;13.066;2022-11-15T00:23:50;25.20;38.10
24730;DHT22;12832;52.392;13.066;2022-11-15T00:26:19;25.20;38.10
24730;DHT22;12832;52.392;13.066;2022-11-15T00:28:48;25.20;38.10
24730;DHT22;12832;52.392;13.066;2022-11-15T00:31:20;25.20;38.10
24730;DHT22;12832;52.392;13.066;2022-11-15T00:33:48;25.30;38.10
24730;DHT22;12832;52.392;13.066;2022-11-15T00:36:19;25.30;38.10
24730;DHT22;12832;52.392;13.066;2022-11-15T00:38:47;25.30;38.10
24730;DHT22;12832;52.392;13.066;2022-11-15T00:41:19;25.30;38.10
24730;DHT22;12832;52.392;13.066;2022-11-15T00:43:50;25.30;38.10
24730;DHT22;12832;52.392;13.066;2022-11-15T00:46:24;25.30;38.10
24730;DHT22;12832;52.392;13.066;2022-11-15T00:48:53;25.30;38.10
24730;DHT22;12832;52.392;13.066;2022-11-15T00:51:23;25.30;38.10
24730;DHT22;12832;52.392;13.066;2022-11-15T00:53:55;25.30;38.10
24730;DHT22;12832;52.392;13.066;2022-11-15T00:56:27;25.30;38.10
24730;DHT22;12832;52.392;13.066;2022-11-15T00:59:00;25.30;38.10
24730;DHT22;12832;52.392;13.066;2022-11-15T01:01:31;25.30;38.10
24730;DHT22;12832;52.392;13.066;2022-11-15T01:03:58;25.40;38.10
24730;DHT22;12832;52.392;13.066;2022-11-15T01:06:29;25.30;38.10
24730;DHT22;12832;52.392;13.066;2022-11-15T01:09:03;25.30;38.10
24730;DHT22;12832;52.392;13.066;2022-11-15T01:11:36;25.30;38.10
24730;DHT22;12832;52.392;13.066;2022-11-15T01:14:06;25.30;38.10
24730;DHT22;12832;52.392;13.066;2022-11-15T01:16:38;25.30;38.10
24730;DHT22;12832;52.392;13.066;2022-11-15T01:19:08;25.30;38.10
24730;DHT22;12832;52.392;13.066;2022-11-15T01:21:37;25.30;38.10
24730;DHT22;12832;52.392;13.066;2022-11-15T01:24:12;25.30;38.10
24730;DHT22;12832;52.392;13.066;2022-11-15T01:26:43;25.30;38.10
24730;DHT22;12832;52.392;13.066;2022-11-15T01:29:14;25.30;38.10
24730;DHT22;12832;52.392;13.066;2022-11-15T01:31:46;25.30;38.10
24730;DHT22;12832;52.392;13.066;2022-11-15T01:34:17;25.30;38.10
24730;DHT22;12832;52.392;13.066;2022-11-15T01:36:51;25.30;38.10
24730;DHT22;12832;52.392;13.066;2022-11-15T01:39:27;25.30;38.10
24730;DHT22;12832;52.392;13.066;2022-11-15T01:41:58;25.30;38.10
24730;DHT22;12832;52.392;13.066;2022-11-15T01:44:45;25.30;38.10
24730;DHT22;12832;52.392;13.066;2022-11-15T01:47:30;25.30;38.10
24730;DHT22;12832;52.392;13.066;2022-11-15T01:50:06;25.30;38.10
24730;DHT22;12832;52.392;13.066;2022-11-15T01:52:36;25.30;38.10
24730;DHT22;12832;52.392;13.066;2022-11-15T01:57:36;25.40;38.10
24730;DHT22;12832;52.392;13.066;2022-11-15T02:00:07;25.40;38.10
24730;DHT22;12832;52.392;13.066;2022-11-15T02:02:41;25.40;38.10
24730;DHT22;12832;52.392;13.066;2022-11-15T02:05:11;25.40;38.10
24730;DHT22;12832;52.392;13.066;2022-11-15T02:07:42;25.40;38.10
24730;DHT22;12832;52.392;13.066;2022-11-15T02:10:19;25.40;38.10
24730;DHT22;12832;52.392;13.066;2022-11-15T02:12:50;25.40;38.10
24730;DHT22;12832;52.392;13.066;2022-11-15T02:15:26;25.40;38.10
24730;DHT22;12832;52.392;13.066;2022-11-15T02:32:23;25.40;38.20
24730;DHT22;12832;52.392;13.066;2022-11-15T02:35:14;25.40;38.20
24730;DHT22;12832;52.392;13.066;2022-11-15T02:37:53;25.40;38.10
24730;DHT22;12832;52.392;13.066;2022-11-15T02:46:48;25.40;38.20
24730;DHT22;12832;52.392;13.066;2022-11-15T02:49:37;25.40;38.10
24730;DHT22;12832;52.392;13.066;2022-11-15T02:52:08;25.40;38.10
24730;DHT22;12832;52.392;13.066;2022-11-15T02:54:36;25.40;38.10
24730;DHT22;12832;52.392;13.066;2022-11-15T02:57:17;25.40;38.10
24730;DHT22;12832;52.392;13.066;2022-11-15T03:05:43;25.40;38.10
24730;DHT22;12832;52.392;13.066;2022-11-15T03:11:13;25.40;38.10
24730;DHT22;12832;52.392;13.066;2022-11-15T03:16:51;25.40;38.10
24730;DHT22;12832;52.392;13.066;2022-11-15T03:22:12;25.40;38.10
24730;DHT22;12832;52.392;13.066;2022-11-15T03:24:47;25.40;38.10
24730;DHT22;12832;52.392;13.066;2022-11-15T03:27:28;25.40;38.10
24730;DHT22;12832;52.392;13.066;2022-11-15T03:30:04;25.40;38.10
24730;DHT22;12832;52.392;13.066;2022-11-15T03:32:52;25.40;38.10
24730;DHT22;12832;52.392;13.066;2022-11-15T03:35:35;25.40;38.10
24730;DHT22;12832;52.392;13.066;2022-11-15T03:38:29;25.40;38.10
24730;DHT22;12832;52.392;13.066;2022-11-15T03:41:13;25.40;38.10
24730;DHT22;12832;52.392;13.066;2022-11-15T03:43:57;25.40;38.10
24730;DHT22;12832;52.392;13.066;2022-11-15T03:46:46;25.40;38.10
24730;DHT22;12832;52.392;13.066;2022-11-15T03:49:20;25.40;38.10
24730;DHT22;12832;52.392;13.066;2022-11-15T03:51:51;25.40;38.10
24730;DHT22;12832;52.392;13.066;2022-11-15T03:54:24;25.40;38.10
24730;DHT22;12832;52.392;13.066;2022-11-15T03:56:55;25.40;38.10
24730;DHT22;12832;52.392;13.066;2022-11-15T03:59:26;25.40;38.10
24730;DHT22;12832;52.392;13.066;2022-11-15T04:01:55;25.40;38.10
24730;DHT22;12832;52.392;13.066;2022-11-15T04:04:23;25.40;38.10
24730;DHT22;12832;52.392;13.066;2022-11-15T04:06:52;25.40;38.10
24730;DHT22;12832;52.392;13.066;2022-11-15T04:09:22;25.40;38.20
24730;DHT22;12832;52.392;13.066;2022-11-15T04:11:49;25.40;38.20
24730;DHT22;12832;52.392;13.066;2022-11-15T04:14:20;25.40;38.20
24730;DHT22;12832;52.392;13.066;2022-11-15T04:16:51;25.40;38.20
24730;DHT22;12832;52.392;13.066;2022-11-15T04:19:17;25.40;38.20
24730;DHT22;12832;52.392;13.066;2022-11-15T04:22:07;25.40;38.20
24730;DHT22;12832;52.392;13.066;2022-11-15T04:24:53;25.40;38.20
24730;DHT22;12832;52.392;13.066;2022-11-15T04:27:24;25.40;38.20
24730;DHT22;12832;52.392;13.066;2022-11-15T04:29:53;25.40;38.20
24730;DHT22;12832;52.392;13.066;2022-11-15T04:32:24;25.40;38.20
24730;DHT22;12832;52.392;13.066;2022-11-15T04:34:51;25.40;38.20
24730;DHT22;12832;52.392;13.066;2022-11-15T04:37:20;25.40;38.40
24730;DHT22;12832;52.392;13.066;2022-11-15T04:39:47;25.40;38.30
24730;DHT22;12832;52.392;13.066;2022-11-15T04:42:16;25.40;38.20
24730;DHT22;12832;52.392;13.066;2022-11-15T04:44:50;25.40;38.20
24730;DHT22;12832;52.392;13.066;2022-11-15T04:47:21;25.40;38.20
24730;DHT22;12832;52.392;13.066;2022-11-15T04:49:50;25.40;38.20
24730;DHT22;12832;52.392;13.066;2022-11-15T04:52:21;25.40;38.20
24730;DHT22;12832;52.392;13.066;2022-11-15T04:54:53;25.40;38.20
24730;DHT22;12832;52.392;13.066;2022-11-15T04:57:31;25.40;38.20
24730;DHT22;12832;52.392;13.066;2022-11-15T04:59:59;25.40;38.20
24730;DHT22;12832;52.392;13.066;2022-11-15T05:02:31;25.40;38.10
24730;DHT22;12832;52.392;13.066;2022-11-15T05:05:18;25.40;38.20
24730;DHT22;12832;52.392;13.066;2022-11-15T05:07:50;25.40;38.20
24730;DHT22;12832;52.392;13.066;2022-11-15T05:10:20;25.40;38.20
24730;DHT22;12832;52.392;13.066;2022-11-15T05:12:47;25.40;38.20
24730;DHT22;12832;52.392;13.066;2022-11-15T05:15:17;25.40;38.20
24730;DHT22;12832;52.392;13.066;2022-11-15T05:17:49;25.40;38.20
24730;DHT22;12832;52.392;13.066;2022-11-15T05:20:19;25.40;38.20
24730;DHT22;12832;52.392;13.066;2022-11-15T05:22:50;25.40;38.20
24730;DHT22;12832;52.392;13.066;2022-11-15T05:25:25;25.40;38.20
24730;DHT22;12832;52.392;13.066;2022-11-15T05:27:56;25.40;38.20
24730;DHT22;12832;52.392;13.066;2022-11-15T05:30:26;25.40;38.10
24730;DHT22;12832;52.392;13.066;2022-11-15T05:32:56;25.50;38.20
24730;DHT22;12832;52.392;13.066;2022-11-15T05:35:38;25.40;38.10
24730;DHT22;12832;52.392;13.066;2022-11-15T05:38:08;25.40;38.10
24730;DHT22;12832;52.392;13.066;2022-11-15T05:40:39;25.40;38.10
24730;DHT22;12832;52.392;13.066;2022-11-15T05:43:09;25.50;38.10
24730;DHT22;12832;52.392;13.066;2022-11-15T05:45:39;25.40;38.10
24730;DHT22;12832;52.392;13.066;2022-11-15T05:48:13;25.40;38.10
24730;DHT22;12832;52.392;13.066;2022-11-15T05:50:46;25.40;38.10
24730;DHT22;12832;52.392;13.066;2022-11-15T05:53:20;25.50;38.20
24730;DHT22;12832;52.392;13.066;2022-11-15T05:55:53;25.50;38.10
24730;DHT22;12832;52.392;13.066;2022-11-15T05:58:23;25.40;38.20
24730;DHT22;12832;52.392;13.066;2022-11-15T06:00:54;25.50;38.10
24730;DHT22;12832;52.392;13.066;2022-11-15T06:03:27;25.50;38.30
24730;DHT22;12832;52.392;13.066;2022-11-15T06:05:56;25.40;38.40
24730;DHT22;12832;52.392;13.066;2022-11-15T06:08:30;25.40;38.10
24730;DHT22;12832;52.392;13.066;2022-11-15T06:11:03;25.40;37.90
24730;DHT22;12832;52.392;13.066;2022-11-15T06:13:34;25.30;37.70
24730;DHT22;12832;52.392;13.066;2022-11-15T06:16:06;25.30;37.70
24730;DHT22;12832;52.392;13.066;2022-11-15T06:18:39;25.30;37.70
24730;DHT22;12832;52.392;13.066;2022-11-15T06:21:07;25.20;37.60
24730;DHT22;12832;52.392;13.066;2022-11-15T06:23:40;25.20;37.50
24730;DHT22;12832;52.392;13.066;2022-11-15T06:26:11;25.20;37.40
24730;DHT22;12832;52.392;13.066;2022-11-15T06:28:41;25.20;37.40
24730;DHT22;12832;52.392;13.066;2022-11-15T06:31:12;25.20;37.40
24730;DHT22;12832;52.392;13.066;2022-11-15T06:33:46;25.10;37.40
24730;DHT22;12832;52.392;13.066;2022-11-15T06:36:20;25.10;37.20
24730;DHT22;12832;52.392;13.066;2022-11-15T06:38:49;25.10;37.10
24730;DHT22;12832;52.392;13.066;2022-11-15T06:41:24;25.10;37.20
24730;DHT22;12832;52.392;13.066;2022-11-15T06:43:53;25.10;37.20
24730;DHT22;12832;52.392;13.066;2022-11-15T06:46:23;25.10;37.00
24730;DHT22;12832;52.392;13.066;2022-11-15T06:48:54;25.10;36.90
24730;DHT22;12832;52.392;13.066;2022-11-15T06:51:27;25.10;37.00
24730;DHT22;12832;52.392;13.066;2022-11-15T06:53:58;25.00;36.80
24730;DHT22;12832;52.392;13.066;2022-11-15T06:56:26;25.00;36.70
24730;DHT22;12832;52.392;13.066;2022-11-15T06:59:02;25.00;36.80
24730;DHT22;12832;52.392;13.066;2022-11-15T07:01:36;25.00;36.90
24730;DHT22;12832;52.392;13.066;2022-11-15T07:04:05;25.00;36.80
24730;DHT22;12832;52.392;13.066;2022-11-15T07:06:34;25.00;36.90
24730;DHT22;12832;52.392;13.066;2022-11-15T07:09:05;25.00;36.80
24730;DHT22;12832;52.392;13.066;2022-11-15T07:11:37;25.00;36.70
24730;DHT22;12832;52.392;13.066;2022-11-15T07:14:06;25.00;36.80
24730;DHT22;12832;52.392;13.066;2022-11-15T07:16:37;25.00;36.80
24730;DHT22;12832;52.392;13.066;2022-11-15T07:19:10;25.00;36.50
24730;DHT22;12832;52.392;13.066;2022-11-15T07:21:40;24.90;36.50
24730;DHT22;12832;52.392;13.066;2022-11-15T07:24:10;24.90;36.40
24730;DHT22;12832;52.392;13.066;2022-11-15T07:26:41;24.90;36.40
24730;DHT22;12832;52.392;13.066;2022-11-15T07:29:11;24.90;36.30
24730;DHT22;12832;52.392;13.066;2022-11-15T07:31:41;24.90;36.50
24730;DHT22;12832;52.392;13.066;2022-11-15T07:34:12;24.90;36.40
24730;DHT22;12832;52.392;13.066;2022-11-15T07:36:39;24.90;36.60
24730;DHT22;12832;52.392;13.066;2022-11-15T07:39:09;24.90;36.60
24730;DHT22;12832;52.392;13.066;2022-11-15T07:41:41;24.90;36.70
24730;DHT22;12832;52.392;13.066;2022-11-15T07:44:13;24.90;36.70
24730;DHT22;12832;52.392;13.066;2022-11-15T07:46:43;24.90;36.80
24730;DHT22;12832;52.392;13.066;2022-11-15T07:49:13;24.80;36.80
24730;DHT22;12832;52.392;13.066;2022-11-15T07:51:41;24.90;36.90
24730;DHT22;12832;52.392;13.066;2022-11-15T07:54:13;24.80;36.80
24730;DHT22;12832;52.392;13.066;2022-11-15T07:56:41;24.80;36.80
24730;DHT22;12832;52.392;13.066;2022-11-15T07:59:11;24.80;36.90
24730;DHT22;12832;52.392;13.066;2022-11-15T08:01:47;24.80;36.90
24730;DHT22;12832;52.392;13.066;2022-11-15T08:04:18;24.80;37.00
24730;DHT22;12832;52.392;13.066;2022-11-15T08:06:46;24.80;37.00
24730;DHT22;12832;52.392;13.066;2022-11-15T08:09:18;24.80;37.10
24730;DHT22;12832;52.392;13.066;2022-11-15T08:11:50;24.80;37.10
24730;DHT22;12832;52.392;13.066;2022-11-15T08:14:18;24.80;37.10
24730;DHT22;12832;52.392;13.066;2022-11-15T08:16:54;24.80;37.20
24730;DHT22;12832;52.392;13.066;2022-11-15T08:19:26;24.80;37.10
24730;DHT22;12832;52.392;13.066;2022-11-15T08:21:55;24.80;37.20
24730;DHT22;12832;52.392;13.066;2022-11-15T08:24:24;24.80;37.20
24730;DHT22;12832;52.392;13.066;2022-11-15T08:26:56;24.70;37.20
24730;DHT22;12832;52.392;13.066;2022-11-15T08:29:27;24.80;37.20
24730;DHT22;12832;52.392;13.066;2022-11-15T08:31:59;24.70;37.20
24730;DHT22;12832;52.392;13.066;2022-11-15T08:34:30;24.70;37.20
24730;DHT22;12832;52.392;13.066;2022-11-15T08:37:00;24.70;37.40
24730;DHT22;12832;52.392;13.066;2022-11-15T08:39:33;24.70;37.40
24730;DHT22;12832;52.392;13.066;2022-11-15T08:42:03;24.70;37.40
24730;DHT22;12832;52.392;13.066;2022-11-15T08:44:34;24.70;37.40
24730;DHT22;12832;52.392;13.066;2022-11-15T08:47:08;24.70;37.40
24730;DHT22;12832;52.392;13.066;2022-11-15T08:49:43;24.70;37.40
24730;DHT22;12832;52.392;13.066;2022-11-15T08:52:16;24.70;37.60
24730;DHT22;12832;52.392;13.066;2022-11-15T08:54:50;24.70;37.60
24730;DHT22;12832;52.392;13.066;2022-11-15T08:57:23;24.70;37.50
24730;DHT22;12832;52.392;13.066;2022-11-15T08:59:57;24.70;37.40
24730;DHT22;12832;52.392;13.066;2022-11-15T09:02:25;24.70;37.40
24730;DHT22;12832;52.392;13.066;2022-11-15T09:04:54;24.70;37.40
24730;DHT22;12832;52.392;13.066;2022-11-15T09:07:24;24.70;37.40
24730;DHT22;12832;52.392;13.066;2022-11-15T09:10:05;24.60;37.30
24730;DHT22;12832;52.392;13.066;2022-11-15T09:12:31;24.60;37.40
24730;DHT22;12832;52.392;13.066;2022-11-15T09:15:01;24.60;37.40
24730;DHT22;12832;52.392;13.066;2022-11-15T09:17:34;24.60;37.40
24730;DHT22;12832;52.392;13.066;2022-11-15T09:20:07;24.60;37.40
24730;DHT22;12832;52.392;13.066;2022-11-15T09:22:51;24.60;37.30
24730;DHT22;12832;52.392;13.066;2022-11-15T09:25:30;24.60;37.40
24730;DHT22;12832;52.392;13.066;2022-11-15T09:27:59;24.60;37.30
24730;DHT22;12832;52.392;13.066;2022-11-15T09:30:31;24.60;38.10
24730;DHT22;12832;52.392;13.066;2022-11-15T09:33:21;24.60;37.40
24730;DHT22;12832;52.392;13.066;2022-11-15T09:35:50;24.60;37.40
24730;DHT22;12832;52.392;13.066;2022-11-15T09:38:25;24.60;37.50
24730;DHT22;12832;52.392;13.066;2022-11-15T09:41:20;24.60;37.60
24730;DHT22;12832;52.392;13.066;2022-11-15T09:49:41;24.60;37.70
24730;DHT22;12832;52.392;13.066;2022-11-15T09:52:13;24.60;37.70
24730;DHT22;12832;52.392;13.066;2022-11-15T09:54:49;24.60;37.70
24730;DHT22;12832;52.392;13.066;2022-11-15T10:00:35;24.60;37.90
24730;DHT22;12832;52.392;13.066;2022-11-15T10:03:31;24.60;38.00
24730;DHT22;12832;52.392;13.066;2022-11-15T10:06:02;24.60;38.10
24730;DHT22;12832;52.392;13.066;2022-11-15T10:11:30;24.60;38.10
24730;DHT22;12832;52.392;13.066;2022-11-15T10:14:27;24.60;38.10
24730;DHT22;12832;52.392;13.066;2022-11-15T10:17:15;24.60;38.10
24730;DHT22;12832;52.392;13.066;2022-11-15T10:22:41;24.60;38.00
24730;DHT22;12832;52.392;13.066;2022-11-15T10:28:06;24.60;38.10
24730;DHT22;12832;52.392;13.066;2022-11-15T10:30:45;24.60;38.10
24730;DHT22;12832;52.392;13.066;2022-11-15T10:44:19;24.60;38.30
24730;DHT22;12832;52.392;13.066;2022-11-15T10:49:31;24.60;38.30
24730;DHT22;12832;52.392;13.066;2022-11-15T10:52:19;24.60;38.30
24730;DHT22;12832;52.392;13.066;2022-11-15T10:57:47;24.50;38.30
24730;DHT22;12832;52.392;13.066;2022-11-15T11:00:37;24.60;39.10
24730;DHT22;12832;52.392;13.066;2022-11-15T11:03:31;24.60;38.50
24730;DHT22;12832;52.392;13.066;2022-11-15T11:06:18;24.60;38.40
24730;DHT22;12832;52.392;13.066;2022-11-15T11:09:03;24.50;38.50
24730;DHT22;12832;52.392;13.066;2022-11-15T11:11:50;24.60;38.60
24730;DHT22;12832;52.392;13.066;2022-11-15T11:14:26;24.60;38.60
24730;DHT22;12832;52.392;13.066;2022-11-15T11:22:38;24.60;38.70
24730;DHT22;12832;52.392;13.066;2022-11-15T11:25:33;24.60;38.70
24730;DHT22;12832;52.392;13.066;2022-11-15T11:31:16;24.60;38.80
24730;DHT22;12832;52.392;13.066;2022-11-15T11:36:29;24.60;38.80
24730;DHT22;12832;52.392;13.066;2022-11-15T11:39:52;24.60;38.80
24730;DHT22;12832;52.392;13.066;2022-11-15T11:51:40;24.60;38.90
24730;DHT22;12832;52.392;13.066;2022-11-15T11:54:20;24.60;39.00
24730;DHT22;12832;52.392;13.066;2022-11-15T11:56:57;24.50;39.00
24730;DHT22;12832;52.392;13.066;2022-11-15T11:59:37;24.60;39.10
24730;DHT22;12832;52.392;13.066;2022-11-15T12:02:39;24.60;39.10
24730;DHT22;12832;52.392;13.066;2022-11-15T12:05:26;24.60;39.20
24730;DHT22;12832;52.392;13.066;2022-11-15T12:08:40;24.60;39.20
24730;DHT22;12832;52.392;13.066;2022-11-15T12:17:07;24.60;39.30
24730;DHT22;12832;52.392;13.066;2022-11-15T12:19:41;24.60;39.30
24730;DHT22;12832;52.392;13.066;2022-11-15T12:22:33;24.60;39.30
24730;DHT22;12832;52.392;13.066;2022-11-15T12:25:16;24.60;39.30
24730;DHT22;12832;52.392;13.066;2022-11-15T12:27:58;24.60;39.30
24730;DHT22;12832;52.392;13.066;2022-11-15T12:30:52;24.60;39.30
24730;DHT22;12832;52.392;13.066;2022-11-15T12:38:59;24.60;39.40
24730;DHT22;12832;52.392;13.066;2022-11-15T12:41:33;24.60;39.50
24730;DHT22;12832;52.392;13.066;2022-11-15T12:44:04;24.60;39.50
24730;DHT22;12832;52.392;13.066;2022-11-15T12:54:54;24.60;39.80
24730;DHT22;12832;52.392;13.066;2022-11-15T12:57:32;24.60;39.80
24730;DHT22;12832;52.392;13.066;2022-11-15T13:02:45;24.60;39.80
24730;DHT22;12832;52.392;13.066;2022-11-15T13:08:40;24.60;39.70
24730;DHT22;12832;52.392;13.066;2022-11-15T13:11:45;24.60;39.80
24730;DHT22;12832;52.392;13.066;2022-11-15T13:14:48;24.60;39.80
24730;DHT22;12832;52.392;13.066;2022-11-15T13:17:27;24.60;39.80
24730;DHT22;12832;52.392;13.066;2022-11-15T13:26:06;24.60;39.80
24730;DHT22;12832;52.392;13.066;2022-11-15T13:28:42;24.60;39.80
24730;DHT22;12832;52.392;13.066;2022-11-15T13:31:29;24.60;39.80
24730;DHT22;12832;52.392;13.066;2022-11-15T13:34:29;24.60;39.80
24730;DHT22;12832;52.392;13.066;2022-11-15T13:39:51;24.60;39.70
24730;DHT22;12832;52.392;13.066;2022-11-15T13:42:20;24.60;39.80
24730;DHT22;12832;52.392;13.066;2022-11-15T13:44:59;24.60;39.80
24730;DHT22;12832;52.392;13.066;2022-11-15T13:47:30;24.60;39.90
24730;DHT22;12832;52.392;13.066;2022-11-15T13:50:00;24.60;39.90
24730;DHT22;12832;52.392;13.066;2022-11-15T13:52:40;24.60;39.90
24730;DHT22;12832;52.392;13.066;2022-11-15T13:55:21;24.60;39.90
24730;DHT22;12832;52.392;13.066;2022-11-15T13:58:02;24.60;40.00
24730;DHT22;12832;52.392;13.066;2022-11-15T14:01:02;24.60;40.10
24730;DHT22;12832;52.392;13.066;2022-11-15T14:03:37;24.60;40.10
24730;DHT22;12832;52.392;13.066;2022-11-15T14:06:17;24.60;40.10
24730;DHT22;12832;52.392;13.066;2022-11-15T14:11:30;24.60;40.20
24730;DHT22;12832;52.392;13.066;2022-11-15T14:14:13;24.60;40.20
24730;DHT22;12832;52.392;13.066;2022-11-15T14:17:18;24.60;40.20
24730;DHT22;12832;52.392;13.066;2022-11-15T14:19:50;24.60;40.30
24730;DHT22;12832;52.392;13.066;2022-11-15T14:22:32;24.60;40.30
24730;DHT22;12832;52.392;13.066;2022-11-15T14:25:24;24.60;40.30
24730;DHT22;12832;52.392;13.066;2022-11-15T14:28:11;24.60;40.30
24730;DHT22;12832;52.392;13.066;2022-11-15T14:30:47;24.60;40.30
24730;DHT22;12832;52.392;13.066;2022-11-15T14:33:33;24.60;40.30
24730;DHT22;12832;52.392;13.066;2022-11-15T14:36:15;24.60;40.30
24730;DHT22;12832;52.392;13.066;2022-11-15T14:38:51;24.60;40.30
24730;DHT22;12832;52.392;13.066;2022-11-15T14:41:28;24.60;40.30
24730;DHT22;12832;52.392;13.066;2022-11-15T14:44:04;24.70;40.30
24730;DHT22;12832;52.392;13.066;2022-11-15T14:46:45;24.70;40.20
24730;DHT22;12832;52.392;13.066;2022-11-15T14:49:13;24.70;40.20
24730;DHT22;12832;52.392;13.066;2022-11-15T14:51:48;24.70;40.20
24730;DHT22;12832;52.392;13.066;2022-11-15T14:54:18;24.70;40.10
24730;DHT22;12832;52.392;13.066;2022-11-15T14:56:48;24.70;40.20
24730;DHT22;12832;52.392;13.066;2022-11-15T14:59:21;24.70;40.20
24730;DHT22;12832;52.392;13.066;2022-11-15T15:01:53;24.70;40.20
24730;DHT22;12832;52.392;13.066;2022-11-15T15:04:25;24.70;40.20
24730;DHT22;12832;52.392;13.066;2022-11-15T15:06:56;24.70;40.30
24730;DHT22;12832;52.392;13.066;2022-11-15T15:09:29;24.70;40.20
24730;DHT22;12832;52.392;13.066;2022-11-15T15:12:00;24.70;40.30
24730;DHT22;12832;52.392;13.066;2022-11-15T15:14:32;24.70;40.40
24730;DHT22;12832;52.392;13.066;2022-11-15T15:17:00;24.60;40.30
24730;DHT22;12832;52.392;13.066;2022-11-15T15:19:32;24.70;40.30
24730;DHT22;12832;52.392;13.066;2022-11-15T15:22:05;24.70;40.40
24730;DHT22;12832;52.392;13.066;2022-11-15T15:24:35;24.70;40.50
24730;DHT22;12832;52.392;13.066;2022-11-15T15:27:05;24.60;40.40
24730;DHT22;12832;52.392;13.066;2022-11-15T15:29:36;24.60;40.40
24730;DHT22;12832;52.392;13.066;2022-11-15T15:32:08;24.70;40.40
24730;DHT22;12832;52.392;13.066;2022-11-15T15:34:36;24.70;40.40
24730;DHT22;12832;52.392;13.066;2022-11-15T15:37:21;24.70;40.40
24730;DHT22;12832;52.392;13.066;2022-11-15T15:39:56;24.60;40.40
24730;DHT22;12832;52.392;13.066;2022-11-15T15:42:32;24.60;40.40
24730;DHT22;12832;52.392;13.066;2022-11-15T15:45:00;24.70;40.40
24730;DHT22;12832;52.392;13.066;2022-11-15T15:47:30;24.60;40.40
24730;DHT22;12832;52.392;13.066;2022-11-15T15:50:02;24.70;40.40
24730;DHT22;12832;52.392;13.066;2022-11-15T15:52:33;24.70;40.50
24730;DHT22;12832;52.392;13.066;2022-11-15T15:55:09;24.70;40.50
24730;DHT22;12832;52.392;13.066;2022-11-15T15:57:39;24.60;40.50
24730;DHT22;12832;52.392;13.066;2022-11-15T16:00:15;24.60;40.50
24730;DHT22;12832;52.392;13.066;2022-11-15T16:02:47;24.70;40.50
24730;DHT22;12832;52.392;13.066;2022-11-15T16:05:18;24.70;40.50
24730;DHT22;12832;52.392;13.066;2022-11-15T16:07:47;24.60;40.40
24730;DHT22;12832;52.392;13.066;2022-11-15T16:10:24;24.70;40.40
24730;DHT22;12832;52.392;13.066;2022-11-15T16:12:57;24.70;40.40
24730;DHT22;12832;52.392;13.066;2022-11-15T16:15:29;24.70;40.40
24730;DHT22;12832;52.392;13.066;2022-11-15T16:18:00;24.70;40.40
24730;DHT22;12832;52.392;13.066;2022-11-15T16:20:46;24.70;40.40
24730;DHT22;12832;52.392;13.066;2022-11-15T16:23:20;24.60;40.30
24730;DHT22;12832;52.392;13.066;2022-11-15T16:25:55;24.60;40.30
24730;DHT22;12832;52.392;13.066;2022-11-15T16:28:27;24.70;40.40
24730;DHT22;12832;52.392;13.066;2022-11-15T16:31:05;24.70;40.40
24730;DHT22;12832;52.392;13.066;2022-11-15T16:33:39;24.60;40.40
24730;DHT22;12832;52.392;13.066;2022-11-15T16:36:21;24.60;40.40
24730;DHT22;12832;52.392;13.066;2022-11-15T16:38:58;24.60;40.40
24730;DHT22;12832;52.392;13.066;2022-11-15T16:41:26;24.70;40.40
24730;DHT22;12832;52.392;13.066;2022-11-15T16:44:00;24.60;40.30
24730;DHT22;12832;52.392;13.066;2022-11-15T16:46:29;24.60;40.40
24730;DHT22;12832;52.392;13.066;2022-11-15T16:48:58;24.60;40.30
24730;DHT22;12832;52.392;13.066;2022-11-15T16:51:31;24.60;40.30
24730;DHT22;12832;52.392;13.066;2022-11-15T16:54:02;24.60;40.30
24730;DHT22;12832;52.392;13.066;2022-11-15T16:56:36;24.70;40.30
24730;DHT22;12832;52.392;13.066;2022-11-15T16:59:08;24.60;40.20
24730;DHT22;12832;52.392;13.066;2022-11-15T17:01:48;24.70;40.20
24730;DHT22;12832;52.392;13.066;2022-11-15T17:04:19;24.60;40.20
24730;DHT22;12832;52.392;13.066;2022-11-15T17:06:53;24.60;40.10
24730;DHT22;12832;52.392;13.066;2022-11-15T17:09:24;24.60;40.10
24730;DHT22;12832;52.392;13.066;2022-11-15T17:11:59;24.60;40.10
24730;DHT22;12832;52.392;13.066;2022-11-15T17:14:30;24.60;40.10
24730;DHT22;12832;52.392;13.066;2022-11-15T17:17:04;24.60;40.20
24730;DHT22;12832;52.392;13.066;2022-11-15T17:19:36;24.60;40.10
24730;DHT22;12832;52.392;13.066;2022-11-15T17:22:06;24.60;40.10
24730;DHT22;12832;52.392;13.066;2022-11-15T17:24:36;24.60;40.00
24730;DHT22;12832;52.392;13.066;2022-11-15T17:27:09;24.60;40.00
24730;DHT22;12832;52.392;13.066;2022-11-15T17:29:42;24.60;40.00
24730;DHT22;12832;52.392;13.066;2022-11-15T17:32:14;24.60;40.00
24730;DHT22;12832;52.392;13.066;2022-11-15T17:34:42;24.60;39.90
24730;DHT22;12832;52.392;13.066;2022-11-15T17:37:12;24.60;39.90
24730;DHT22;12832;52.392;13.066;2022-11-15T17:39:42;24.60;39.90
24730;DHT22;12832;52.392;13.066;2022-11-15T17:42:12;24.60;40.00
24730;DHT22;12832;52.392;13.066;2022-11-15T17:44:42;24.60;39.80
24730;DHT22;12832;52.392;13.066;2022-11-15T17:47:14;24.60;39.80
24730;DHT22;12832;52.392;13.066;2022-11-15T17:49:44;24.60;39.80
24730;DHT22;12832;52.392;13.066;2022-11-15T17:52:15;24.60;39.80
24730;DHT22;12832;52.392;13.066;2022-11-15T17:54:50;24.60;39.80
24730;DHT22;12832;52.392;13.066;2022-11-15T17:57:23;24.60;39.70
24730;DHT22;12832;52.392;13.066;2022-11-15T17:59:52;24.60;39.70
24730;DHT22;12832;52.392;13.066;2022-11-15T18:02:22;24.60;39.80
24730;DHT22;12832;52.392;13.066;2022-11-15T18:04:52;24.60;39.70
24730;DHT22;12832;52.392;13.066;2022-11-15T18:07:18;24.70;39.60
24730;DHT22;12832;52.392;13.066;2022-11-15T18:09:46;24.70;39.60